Time;durP1;ratioP1;P1;durP2;ratioP2;P2;SDS_P1;SDS_P2;PMS_P1;PMS_P2;Temp;Humidity;BMP_temperature;BMP_pressure;BME280_temperature;BME280_humidity;BME280_pressure;Samples;Min_cycle;Max_cycle;Signal;HPM_P1;HPM_P2
2022/12/27 00:01:52;;;;;;;4.75;1.40;;;6.40;9.50;;;;;;7393563;19;20070;-73
2022/12/27 00:04:28;;;;;;;1.90;1.17;;;6.30;10.20;;;;;;7391577;19;20102;-73
2022/12/27 00:07:00;;;;;;;2.00;1.23;;;6.30;10.30;;;;;;7393338;19;20078;-72
2022/12/27 00:09:32;;;;;;;4.75;1.75;;;6.20;9.70;;;;;;7391111;19;20010;-72
2022/12/27 00:12:02;;;;;;;2.55;1.17;;;6.10;10.90;;;;;;7392711;19;20018;-73
2022/12/27 00:14:32;;;;;;;3.08;1.30;;;6.10;11.10;;;;;;7395256;19;20011;-73
2022/12/27 00:17:01;;;;;;;3.30;1.40;;;6.00;11.00;;;;;;7392923;19;20470;-73
2022/12/27 00:19:34;;;;;;;4.43;1.35;;;5.90;12.10;;;;;;7389436;19;20018;-72
2022/12/27 00:22:04;;;;;;;2.97;1.27;;;6.00;12.10;;;;;;7392531;19;20110;-72
2022/12/27 00:24:34;;;;;;;4.40;1.67;;;5.90;11.90;;;;;;7391597;19;20121;-72
2022/12/27 00:27:06;;;;;;;4.15;1.33;;;5.80;12.40;;;;;;7390240;19;20359;-72
2022/12/27 00:29:38;;;;;;;2.63;1.48;;;5.80;11.00;;;;;;7389677;19;20359;-72
2022/12/27 00:32:08;;;;;;;2.20;1.27;;;5.70;11.70;;;;;;7392508;19;20039;-72
2022/12/27 00:34:41;;;;;;;4.68;1.33;;;5.70;9.40;;;;;;7391936;19;20384;-73
2022/12/27 00:37:11;;;;;;;5.05;1.40;;;5.80;6.60;;;;;;7392001;19;20027;-72
2022/12/27 00:39:40;;;;;;;2.30;1.08;;;5.60;6.80;;;;;;7388876;19;20351;-71
2022/12/27 00:42:10;;;;;;;2.88;1.17;;;5.70;4.90;;;;;;7391899;19;20020;-72
2022/12/27 00:44:42;;;;;;;4.80;1.30;;;5.60;4.60;;;;;;7390180;19;20017;-72
2022/12/27 00:47:12;;;;;;;3.78;1.17;;;5.60;5.70;;;;;;7391714;19;20486;-72
2022/12/27 00:49:45;;;;;;;1.23;0.93;;;5.40;5.80;;;;;;7389639;19;20018;-74
2022/12/27 00:52:14;;;;;;;7.43;1.65;;;5.40;5.60;;;;;;7391290;19;20022;-72
2022/12/27 00:54:44;;;;;;;5.07;1.50;;;5.40;5.60;;;;;;7391845;19;20018;-72
2022/12/27 00:57:14;;;;;;;2.53;1.00;;;5.30;6.20;;;;;;7392028;19;20725;-72
2022/12/27 00:59:44;;;;;;;3.35;1.17;;;5.20;6.10;;;;;;7388858;19;20640;-72
2022/12/27 01:02:14;;;;;;;3.53;1.05;;;5.10;6.30;;;;;;7391668;19;20025;-72
2022/12/27 01:04:46;;;;;;;3.17;1.10;;;5.10;6.20;;;;;;7389337;19;20014;-71
2022/12/27 01:07:17;;;;;;;2.38;1.23;;;5.10;6.00;;;;;;7391612;19;20010;-72
2022/12/27 01:09:46;;;;;;;1.85;1.17;;;4.90;6.50;;;;;;7389065;19;20089;-73
2022/12/27 01:12:16;;;;;;;1.77;1.05;;;4.90;7.00;;;;;;7391117;19;20097;-72
2022/12/27 01:14:46;;;;;;;3.55;1.13;;;4.80;7.90;;;;;;7393939;19;20015;-71
2022/12/27 01:17:16;;;;;;;2.35;0.77;;;4.70;5.90;;;;;;7390802;19;20015;-72
2022/12/27 01:19:49;;;;;;;1.48;0.90;;;4.80;3.50;;;;;;7388437;19;20031;-72
2022/12/27 01:22:19;;;;;;;3.17;1.15;;;4.70;4.30;;;;;;7390918;19;20039;-72
2022/12/27 01:24:48;;;;;;;2.30;0.95;;;4.60;3.50;;;;;;7390432;19;20015;-72
2022/12/27 01:27:20;;;;;;;2.35;0.95;;;4.60;3.80;;;;;;7389489;19;20014;-72
2022/12/27 01:29:52;;;;;;;2.17;1.00;;;4.60;3.90;;;;;;7388525;19;20035;-71
2022/12/27 01:32:22;;;;;;;4.93;1.30;;;4.50;3.70;;;;;;7391426;19;20010;-72
2022/12/27 01:34:55;;;;;;;4.30;1.33;;;4.40;3.60;;;;;;7390419;19;20021;-72
2022/12/27 01:37:34;;;;;;;3.20;1.55;;;4.50;4.40;;;;;;7386839;19;20479;-72
2022/12/27 01:40:04;;;;;;;3.10;1.02;;;4.30;3.30;;;;;;7387753;19;20014;-72
2022/12/27 01:45:17;;;;;;;2.28;1.17;;;4.30;3.20;;;;;;7390169;19;20343;-72
2022/12/27 01:47:52;;;;;;;5.13;1.30;;;4.20;3.30;;;;;;7390065;19;20346;-72
2022/12/27 01:50:32;;;;;;;3.47;1.27;;;4.20;3.20;;;;;;7387427;19;20031;-72
2022/12/27 01:53:09;;;;;;;2.60;1.00;;;4.20;3.70;;;;;;7390207;19;20021;-72
2022/12/27 01:55:46;;;;;;;5.40;1.30;;;4.10;4.80;;;;;;7391072;19;20014;-71
2022/12/27 01:58:20;;;;;;;2.63;1.00;;;4.10;4.80;;;;;;7389168;19;20014;-72
2022/12/27 02:00:51;;;;;;;1.58;1.00;;;4.10;4.70;;;;;;7389341;19;20018;-72
2022/12/27 02:03:25;;;;;;;2.25;1.33;;;4.10;5.40;;;;;;7389700;19;20105;-72
2022/12/27 02:06:02;;;;;;;3.38;1.35;;;4.10;5.40;;;;;;7411901;19;20031;-72
2022/12/27 02:08:41;;;;;;;2.50;1.20;;;4.00;6.90;;;;;;7416508;19;20022;-71
2022/12/27 02:11:12;;;;;;;3.08;1.15;;;4.00;8.30;;;;;;7404776;19;20026;-71
2022/12/27 02:13:44;;;;;;;7.60;1.48;;;3.90;9.00;;;;;;7392776;19;20462;-72
2022/12/27 02:16:19;;;;;;;3.22;1.25;;;3.90;9.60;;;;;;7389978;19;20474;-72
2022/12/27 02:18:51;;;;;;;6.28;1.83;;;3.90;10.60;;;;;;7388398;19;20015;-72
2022/12/27 02:21:47;;;;;;;4.00;1.35;;;3.90;11.10;;;;;;7388979;19;20018;-72
2022/12/27 02:24:40;;;;;;;5.05;1.40;;;3.90;10.70;;;;;;7389016;19;20003;-72
2022/12/27 02:27:22;;;;;;;2.83;1.20;;;3.80;11.80;;;;;;7387307;19;20474;-73
2022/12/27 02:30:02;;;;;;;4.53;1.40;;;3.80;12.50;;;;;;7386823;19;20032;-71
2022/12/27 02:32:39;;;;;;;4.63;1.35;;;3.90;11.90;;;;;;7388771;19;20014;-71
2022/12/27 02:35:16;;;;;;;7.00;1.35;;;3.90;11.90;;;;;;7388633;19;20021;-72
2022/12/27 02:37:50;;;;;;;3.83;1.35;;;3.90;12.10;;;;;;7388683;19;20019;-72
2022/12/27 02:54:53;;;;;;;5.22;1.70;;;3.70;14.30;;;;;;7395695;19;20014;-72
2022/12/27 02:57:28;;;;;;;5.05;1.33;;;3.70;15.00;;;;;;7395866;19;20474;-72
2022/12/27 03:03:22;;;;;;;4.20;1.60;;;3.70;15.90;;;;;;7395543;19;20081;-71
2022/12/27 03:15:53;;;;;;;5.43;1.90;;;3.60;16.80;;;;;;7394064;19;20584;-72
2022/12/27 03:17:53;;;;;;;3.67;1.60;;;3.50;18.40;;;;;;7394926;19;20022;-72
2022/12/27 03:26:15;;;;;;;3.53;1.45;;;3.30;20.30;;;;;;7394182;19;20015;-73
2022/12/27 03:34:34;;;;;;;7.30;2.25;;;3.20;20.90;;;;;;7397372;19;20030;-72
2022/12/27 03:40:08;;;;;;;6.28;1.40;;;3.10;22.10;;;;;;7396020;19;20015;-72
2022/12/27 03:48:17;;;;;;;4.43;1.60;;;2.90;21.70;;;;;;7397745;19;20173;-72
2022/12/27 03:51:03;;;;;;;9.48;1.80;;;2.90;22.40;;;;;;7398982;19;20025;-73
2022/12/27 03:53:40;;;;;;;4.50;1.25;;;2.90;21.90;;;;;;7398136;19;20015;-73
2022/12/27 03:56:11;;;;;;;4.20;1.40;;;2.80;22.20;;;;;;7394586;19;20031;-73
2022/12/27 03:58:41;;;;;;;5.00;1.67;;;2.80;22.40;;;;;;7392720;19;20014;-73
2022/12/27 04:01:11;;;;;;;3.83;1.75;;;2.80;22.30;;;;;;7389684;19;20561;-72
2022/12/27 04:03:41;;;;;;;8.55;1.63;;;2.80;22.40;;;;;;7392006;19;20018;-72
2022/12/27 04:06:13;;;;;;;7.80;2.00;;;2.90;22.10;;;;;;7391567;19;20030;-72
2022/12/27 04:35:57;;;;;;;5.15;1.70;;;2.70;21.60;;;;;;7392404;19;20010;-72
2022/12/27 04:38:34;;;;;;;4.72;1.55;;;2.70;21.80;;;;;;7391371;19;20046;-72
2022/12/27 04:54:58;;;;;;;4.70;1.75;;;2.80;18.30;;;;;;7391641;19;20051;-73
2022/12/27 04:57:31;;;;;;;4.40;1.48;;;2.80;17.80;;;;;;7391722;19;20015;-71
2022/12/27 05:02:48;;;;;;;4.85;1.52;;;2.80;16.70;;;;;;7391594;19;20358;-71
2022/12/27 05:05:18;;;;;;;3.83;1.35;;;2.80;16.40;;;;;;7391596;19;20007;-71
2022/12/27 05:15:58;;;;;;;;;;;2.80;14.40;;;;;;7393733;19;20440;-72
2022/12/27 05:18:28;;;;;;;4.50;1.60;;;2.70;14.80;;;;;;7391459;19;19918;-71
2022/12/27 05:21:04;;;;;;;3.08;1.65;;;2.70;14.60;;;;;;7389918;19;20018;-72
2022/12/27 05:26:21;;;;;;;3.58;1.38;;;2.80;13.40;;;;;;7420816;19;20039;-72
2022/12/27 05:28:55;;;;;;;3.97;1.50;;;2.80;13.00;;;;;;7417207;19;20007;-72
2022/12/27 05:31:26;;;;;;;4.15;1.38;;;2.80;13.50;;;;;;7406383;19;20002;-72
2022/12/27 05:33:56;;;;;;;2.58;1.35;;;2.80;12.50;;;;;;7391230;19;20500;-72
2022/12/27 05:36:27;;;;;;;3.55;1.60;;;2.90;12.50;;;;;;7390926;19;20405;-72
2022/12/27 05:38:57;;;;;;;2.35;1.38;;;2.90;12.10;;;;;;7389186;19;20030;-72
2022/12/27 05:41:27;;;;;;;4.22;1.60;;;2.90;12.60;;;;;;7389314;19;20071;-72
2022/12/27 05:43:59;;;;;;;1.77;1.30;;;2.90;12.10;;;;;;7389929;19;20507;-72
2022/12/27 05:46:36;;;;;;;4.70;1.60;;;2.90;12.50;;;;;;7389781;19;20015;-72
2022/12/27 05:49:08;;;;;;;4.00;1.30;;;2.90;11.90;;;;;;7388547;19;20520;-72
2022/12/27 05:51:38;;;;;;;3.92;1.40;;;2.90;11.90;;;;;;7389566;19;20018;-72
2022/12/27 05:54:08;;;;;;;6.95;1.65;;;3.00;12.00;;;;;;7389468;19;20015;-73
2022/12/27 05:56:38;;;;;;;2.45;1.40;;;3.00;11.30;;;;;;7388107;19;20043;-73
2022/12/27 05:59:11;;;;;;;4.13;1.60;;;2.90;11.20;;;;;;7388425;19;20018;-73
2022/12/27 06:01:40;;;;;;;5.53;2.08;;;2.90;11.30;;;;;;7388044;19;20023;-73
2022/12/27 06:04:13;;;;;;;5.50;1.50;;;2.80;12.20;;;;;;7389347;19;20014;-73
2022/12/27 06:06:43;;;;;;;3.80;1.55;;;2.80;13.30;;;;;;7389043;19;20039;-73
2022/12/27 06:09:13;;;;;;;4.45;1.48;;;2.80;12.70;;;;;;7388153;19;20022;-73
2022/12/27 06:11:43;;;;;;;4.95;1.50;;;2.80;12.80;;;;;;7388972;19;20018;-73
2022/12/27 06:14:15;;;;;;;6.47;2.28;;;2.80;12.30;;;;;;7392436;19;20025;-73
2022/12/27 06:16:45;;;;;;;3.45;1.50;;;2.90;12.60;;;;;;7389095;19;20123;-73
2022/12/27 06:19:15;;;;;;;2.83;1.50;;;2.80;13.10;;;;;;7387323;19;20019;-73
2022/12/27 06:21:44;;;;;;;1.95;1.40;;;2.80;12.90;;;;;;7387572;19;20027;-73
2022/12/27 06:24:14;;;;;;;3.65;1.48;;;2.90;12.00;;;;;;7385843;19;20042;-73
2022/12/27 06:26:44;;;;;;;3.40;1.52;;;2.90;11.50;;;;;;7389013;19;20031;-73
2022/12/27 06:29:17;;;;;;;6.82;1.73;;;2.90;12.10;;;;;;7387071;19;20015;-71
2022/12/27 06:31:47;;;;;;;4.70;1.80;;;2.90;12.30;;;;;;7386750;19;20491;-71
2022/12/27 06:34:24;;;;;;;4.38;1.52;;;2.90;11.30;;;;;;7388483;19;20018;-73
2022/12/27 06:36:54;;;;;;;4.20;1.70;;;2.80;11.20;;;;;;7388342;19;20010;-71
2022/12/27 06:39:24;;;;;;;4.78;1.45;;;2.80;11.20;;;;;;7386825;19;20022;-73
2022/12/27 06:41:54;;;;;;;3.47;1.50;;;2.90;11.20;;;;;;7387364;19;20022;-73
2022/12/27 06:44:27;;;;;;;5.18;1.70;;;2.90;11.20;;;;;;7388384;19;20509;-73
2022/12/27 06:46:56;;;;;;;2.10;1.35;;;2.80;11.20;;;;;;7388720;19;20018;-73
2022/12/27 06:49:27;;;;;;;2.63;1.67;;;2.70;11.60;;;;;;7386277;19;20018;-73
2022/12/27 06:51:57;;;;;;;3.17;1.67;;;2.70;12.50;;;;;;7387608;19;20022;-72
2022/12/27 06:54:28;;;;;;;7.38;1.80;;;2.70;13.50;;;;;;7387863;19;20503;-73
2022/12/27 06:56:58;;;;;;;4.82;1.95;;;2.70;13.60;;;;;;7387962;19;20022;-72
2022/12/27 06:59:34;;;;;;;3.78;1.90;;;2.60;13.70;;;;;;7386435;19;20013;-72
2022/12/27 07:02:03;;;;;;;7.25;1.88;;;2.60;14.00;;;;;;7386443;19;20011;-72
2022/12/27 07:04:33;;;;;;;2.85;1.85;;;2.50;14.60;;;;;;7387512;19;20022;-72
2022/12/27 07:07:03;;;;;;;5.13;2.88;;;2.50;15.80;;;;;;7387497;19;20086;-72
2022/12/27 07:09:40;;;;;;;9.52;4.45;;;2.60;15.50;;;;;;7385857;19;20014;-72
2022/12/27 07:12:10;;;;;;;7.90;4.38;;;2.50;15.70;;;;;;7386234;19;20019;-72
2022/12/27 07:14:43;;;;;;;6.30;3.40;;;2.50;16.00;;;;;;7387131;19;20019;-72
2022/12/27 07:17:15;;;;;;;5.03;2.95;;;2.40;17.10;;;;;;7383454;19;20018;-72
2022/12/27 07:19:47;;;;;;;7.22;3.80;;;2.40;17.70;;;;;;7380636;19;20015;-72
2022/12/27 07:22:17;;;;;;;9.45;4.43;;;2.50;18.00;;;;;;7381562;19;20017;-72
2022/12/27 07:24:47;;;;;;;11.85;5.13;;;2.50;18.00;;;;;;7381241;19;20014;-71
2022/12/27 07:27:17;;;;;;;10.52;4.90;;;2.40;18.00;;;;;;7383278;19;20023;-73
2022/12/27 07:29:52;;;;;;;14.23;5.70;;;2.40;18.00;;;;;;7384874;19;20032;-71
2022/12/27 07:32:22;;;;;;;14.57;5.40;;;2.50;18.00;;;;;;7386948;19;20031;-71
2022/12/27 07:34:52;;;;;;;7.88;4.30;;;2.50;18.10;;;;;;7387112;19;20081;-73
2022/12/27 07:37:22;;;;;;;10.52;4.60;;;2.50;17.50;;;;;;7394284;19;20021;-71
2022/12/27 07:39:55;;;;;;;8.27;4.32;;;2.50;17.50;;;;;;7391468;19;20038;-73
2022/12/27 07:42:24;;;;;;;8.40;4.13;;;2.50;16.80;;;;;;7391927;19;20086;-72
2022/12/27 07:44:57;;;;;;;11.10;5.00;;;2.60;16.80;;;;;;7393225;19;20014;-72
2022/12/27 07:47:30;;;;;;;9.40;4.00;;;2.60;15.90;;;;;;7393796;19;20019;-72
2022/12/27 07:49:59;;;;;;;8.50;3.95;;;2.70;16.50;;;;;;7391083;19;20078;-73
2022/12/27 07:52:32;;;;;;;9.93;3.95;;;2.70;16.20;;;;;;7392103;19;20018;-71
2022/12/27 07:55:02;;;;;;;11.80;4.75;;;2.70;16.20;;;;;;7393139;19;20074;-71
2022/12/27 07:57:32;;;;;;;7.60;4.13;;;2.60;16.40;;;;;;7392794;19;20018;-72
2022/12/27 08:00:07;;;;;;;7.10;4.15;;;2.60;16.60;;;;;;7389379;19;20015;-73
2022/12/27 08:02:42;;;;;;;8.18;3.47;;;2.70;17.00;;;;;;7390909;19;20130;-72
2022/12/27 08:05:12;;;;;;;5.13;2.97;;;2.80;16.40;;;;;;7392780;19;20067;-74
2022/12/27 08:07:44;;;;;;;7.55;3.20;;;2.80;15.40;;;;;;7392828;19;20014;-72
2022/12/27 08:10:15;;;;;;;3.85;2.60;;;2.90;14.80;;;;;;7390005;19;20019;-74
2022/12/27 08:12:47;;;;;;;6.85;2.75;;;2.90;14.60;;;;;;7391868;19;20038;-73
2022/12/27 08:15:20;;;;;;;6.18;2.60;;;3.00;14.40;;;;;;7392731;19;20011;-72
2022/12/27 08:17:50;;;;;;;3.67;2.00;;;3.10;14.50;;;;;;7390755;19;20074;-72
2022/12/27 08:20:19;;;;;;;7.38;2.60;;;3.10;13.50;;;;;;7388804;19;20022;-72
2022/12/27 08:22:52;;;;;;;6.25;1.88;;;3.20;13.40;;;;;;7390357;19;20696;-72
2022/12/27 08:25:22;;;;;;;4.57;1.90;;;3.30;11.90;;;;;;7392381;19;20283;-72
2022/12/27 08:27:54;;;;;;;4.22;2.00;;;3.40;11.50;;;;;;7393142;19;20077;-70
2022/12/27 08:30:29;;;;;;;6.10;2.25;;;3.40;10.10;;;;;;7389799;19;20010;-73
2022/12/27 08:32:59;;;;;;;3.53;1.92;;;3.60;8.60;;;;;;7392809;19;20015;-72
2022/12/27 08:35:29;;;;;;;5.13;2.05;;;3.60;8.60;;;;;;7393016;19;20014;-73
2022/12/27 08:38:20;;;;;;;3.95;1.80;;;3.70;8.10;;;;;;7391229;19;20034;-72
2022/12/27 08:40:50;;;;;;;2.97;1.88;;;3.70;7.50;;;;;;7390789;19;20010;-72
2022/12/27 08:43:22;;;;;;;4.53;1.60;;;3.80;7.10;;;;;;7390154;19;20011;-72
2022/12/27 08:46:07;;;;;;;3.75;1.50;;;3.80;6.20;;;;;;7411829;19;20018;-72
2022/12/27 08:48:54;;;;;;;42.72;21.80;;;3.90;5.70;;;;;;7420609;19;20050;-72
2022/12/27 08:51:24;;;;;;;3.22;2.00;;;4.00;5.70;;;;;;7410447;19;20010;-72
2022/12/27 08:54:07;;;;;;;4.80;2.05;;;4.00;4.70;;;;;;7393590;19;20018;-72
2022/12/27 08:56:37;;;;;;;8.43;2.33;;;4.00;4.70;;;;;;7392151;19;20089;-72
2022/12/27 08:59:07;;;;;;;4.85;1.83;;;4.10;4.80;;;;;;7389754;19;20022;-73
2022/12/27 09:01:41;;;;;;;6.65;2.15;;;4.10;4.30;;;;;;7391083;19;20017;-73
2022/12/27 09:04:12;;;;;;;6.68;2.38;;;4.10;3.80;;;;;;7391210;19;20085;-72
2022/12/27 09:06:42;;;;;;;2.75;1.70;;;4.20;3.30;;;;;;7391522;19;20011;-72
2022/12/27 09:09:12;;;;;;;4.03;1.90;;;4.30;3.20;;;;;;7389276;19;20344;-71
2022/12/27 09:11:42;;;;;;;5.18;2.05;;;4.30;2.90;;;;;;7389122;19;20046;-72
2022/12/27 09:14:14;;;;;;;4.05;2.30;;;4.30;3.30;;;;;;7393831;19;20364;-72
2022/12/27 09:16:47;;;;;;;4.38;2.08;;;4.40;3.70;;;;;;7391243;19;20017;-73
2022/12/27 09:19:17;;;;;;;3.20;1.92;;;4.40;4.00;;;;;;7389294;19;20491;-73
2022/12/27 09:21:48;;;;;;;3.88;1.50;;;4.40;2.00;;;;;;7388643;19;20377;-73
2022/12/27 09:24:18;;;;;;;6.20;2.05;;;4.50;2.30;;;;;;7390218;19;20031;-73
2022/12/27 09:26:48;;;;;;;6.18;2.28;;;4.50;2.30;;;;;;7390078;19;20122;-72
2022/12/27 09:29:18;;;;;;;6.15;2.13;;;4.60;1.80;;;;;;7387917;19;20021;-73
2022/12/27 09:31:53;;;;;;;7.47;2.10;;;4.70;1.40;;;;;;7389823;19;20078;-72
2022/12/27 09:34:23;;;;;;;6.88;2.10;;;4.80;1.50;;;;;;7390118;19;20025;-73
2022/12/27 09:37:00;;;;;;;5.20;1.70;;;4.80;1.00;;;;;;7390398;19;20031;-73
2022/12/27 09:39:29;;;;;;;6.15;2.35;;;4.90;1.00;;;;;;7388517;19;20389;-72
2022/12/27 09:42:10;;;;;;;6.47;2.42;;;5.00;1.00;;;;;;7388624;19;20021;-73
2022/12/27 09:45:08;;;;;;;6.13;2.50;;;5.10;1.00;;;;;;7389292;19;20014;-72
2022/12/27 09:47:53;;;;;;;3.97;2.28;;;5.10;1.00;;;;;;7389893;19;20013;-73
2022/12/27 09:50:31;;;;;;;5.05;2.17;;;5.20;1.00;;;;;;7387149;19;20031;-72
2022/12/27 09:53:07;;;;;;;4.28;1.75;;;5.30;1.00;;;;;;7389598;19;20018;-73
2022/12/27 09:55:42;;;;;;;2.57;1.50;;;5.30;1.00;;;;;;7388689;19;20015;-71
2022/12/27 09:58:25;;;;;;;6.78;1.80;;;5.40;1.00;;;;;;7387394;19;20019;-72
2022/12/27 10:00:55;;;;;;;5.90;1.55;;;5.40;1.00;;;;;;7389060;19;20549;-73
2022/12/27 10:03:31;;;;;;;4.70;1.55;;;5.40;1.00;;;;;;7387451;19;20479;-72
2022/12/27 10:06:19;;;;;;;32.88;17.67;;;5.50;1.00;;;;;;7387371;19;20011;-72
2022/12/27 10:09:00;;;;;;;3.67;1.80;;;5.60;1.00;;;;;;7387764;19;20014;-74
2022/12/27 10:11:39;;;;;;;7.07;1.60;;;5.60;1.00;;;;;;7388735;19;20030;-73
2022/12/27 10:14:28;;;;;;;2.03;1.42;;;5.60;1.00;;;;;;7390086;19;20124;-73
2022/12/27 10:17:09;;;;;;;5.95;1.63;;;5.60;1.00;;;;;;7389644;19;20011;-72
2022/12/27 10:19:50;;;;;;;7.97;1.55;;;5.60;1.00;;;;;;7385658;19;20078;-71
2022/12/27 10:22:26;;;;;;;4.43;1.75;;;5.70;1.00;;;;;;7388321;19;20022;-72
2022/12/27 10:25:00;;;;;;;5.47;1.27;;;5.80;1.00;;;;;;7387814;19;20014;-72
2022/12/27 10:27:33;;;;;;;2.67;1.67;;;5.90;1.00;;;;;;7388704;19;20031;-73
2022/12/27 10:30:05;;;;;;;5.25;1.60;;;5.90;1.00;;;;;;7386259;19;20043;-72
2022/12/27 10:32:35;;;;;;;7.97;1.70;;;6.00;1.00;;;;;;7388790;19;20021;-72
2022/12/27 10:35:09;;;;;;;3.75;2.05;;;6.00;1.00;;;;;;7389024;19;20077;-72
2022/12/27 10:37:38;;;;;;;5.43;1.70;;;6.10;1.00;;;;;;7386830;19;20022;-73
2022/12/27 10:40:15;;;;;;;4.53;1.20;;;6.20;1.00;;;;;;7384470;19;20352;-72
2022/12/27 10:42:49;;;;;;;5.32;1.55;;;6.20;1.00;;;;;;7388181;19;20015;-72
2022/12/27 10:45:26;;;;;;;;;;;6.20;1.00;;;;;;7388743;19;20343;-73
2022/12/27 10:48:11;;;;;;;4.15;1.50;;;6.20;1.00;;;;;;7387563;19;19927;-72
2022/12/27 10:50:54;;;;;;;5.72;1.20;;;6.30;1.00;;;;;;7388124;19;20482;-72
2022/12/27 10:53:35;;;;;;;4.65;1.52;;;6.40;1.00;;;;;;7388263;19;20018;-72
2022/12/27 10:56:16;;;;;;;2.97;1.40;;;6.40;1.00;;;;;;7388227;19;20019;-73
2022/12/27 10:58:48;;;;;;;3.65;1.05;;;6.40;1.00;;;;;;7386952;19;20023;-72
2022/12/27 11:01:28;;;;;;;2.72;1.17;;;6.40;1.00;;;;;;7387312;19;20014;-73
2022/12/27 11:04:15;;;;;;;4.80;1.40;;;6.50;1.00;;;;;;7386897;19;20364;-72
2022/12/27 11:07:19;;;;;;;5.05;2.22;;;6.60;1.00;;;;;;7387357;19;20164;-72
2022/12/27 11:09:49;;;;;;;11.43;6.50;;;6.60;1.00;;;;;;7387978;19;20018;-72
2022/12/27 11:12:23;;;;;;;4.35;1.40;;;6.60;1.00;;;;;;7394547;19;20018;-73
2022/12/27 11:14:58;;;;;;;2.80;1.15;;;6.60;1.00;;;;;;7394833;19;20019;-72
2022/12/27 11:17:31;;;;;;;5.97;1.40;;;6.60;1.00;;;;;;7395060;19;20010;-72
2022/12/27 11:20:04;;;;;;;3.33;1.25;;;6.60;1.00;;;;;;7392015;19;20027;-73
2022/12/27 11:22:45;;;;;;;6.32;1.15;;;6.70;1.00;;;;;;7394425;19;20018;-73
2022/12/27 11:25:16;;;;;;;4.10;1.30;;;6.70;1.00;;;;;;7390073;19;20434;-73
2022/12/27 11:27:50;;;;;;;3.70;1.58;;;6.70;1.00;;;;;;7394286;19;20022;-73
2022/12/27 11:30:32;;;;;;;2.15;1.00;;;6.70;1.00;;;;;;7391072;19;20542;-72
2022/12/27 11:33:05;;;;;;;2.67;1.10;;;6.80;1.00;;;;;;7394140;19;20018;-73
2022/12/27 11:35:49;;;;;;;3.25;1.30;;;6.90;1.00;;;;;;7394134;19;20039;-72
2022/12/27 11:38:26;;;;;;;5.18;1.10;;;6.80;1.00;;;;;;7391752;19;20047;-72
2022/12/27 11:41:03;;;;;;;4.35;1.23;;;6.80;1.00;;;;;;7393635;19;20025;-72
2022/12/27 11:43:40;;;;;;;3.10;1.10;;;6.80;1.00;;;;;;7392564;19;20030;-72
2022/12/27 11:46:24;;;;;;;3.28;1.30;;;6.70;1.00;;;;;;7393645;19;20370;-72
2022/12/27 11:48:58;;;;;;;3.15;1.50;;;6.70;1.00;;;;;;7392927;19;20549;-72
2022/12/27 11:51:42;;;;;;;;;;;6.80;1.00;;;;;;7393807;19;20018;-73
2022/12/27 11:54:46;;;;;;;5.22;2.25;;;6.80;1.00;;;;;;7393500;19;20365;-73
2022/12/27 11:57:25;;;;;;;6.18;2.60;;;6.80;1.00;;;;;;7394869;19;20018;-73
2022/12/27 12:00:04;;;;;;;10.95;2.85;;;6.80;1.00;;;;;;7392938;19;20017;-73
2022/12/27 12:02:54;;;;;;;71.20;37.28;;;6.80;1.00;;;;;;7393115;19;20011;-73
2022/12/27 12:05:48;;;;;;;7.93;3.42;;;6.90;1.00;;;;;;7391227;19;20098;-72
2022/12/27 12:08:51;;;;;;;5.30;2.20;;;6.90;1.00;;;;;;7421075;19;20061;-71
2022/12/27 12:11:38;;;;;;;4.35;1.90;;;6.90;1.00;;;;;;7423911;19;20046;-72
2022/12/27 12:14:26;;;;;;;3.17;1.85;;;7.00;1.00;;;;;;7403815;19;20003;-73
2022/12/27 12:17:37;;;;;;;6.65;2.15;;;7.00;1.00;;;;;;7394386;19;20036;-73
2022/12/27 12:20:42;;;;;;;5.82;2.58;;;7.10;1.00;;;;;;7392181;19;20018;-74
2022/12/27 12:23:31;;;;;;;7.35;2.70;;;7.10;1.00;;;;;;7392841;19;20028;-72
2022/12/27 12:26:15;;;;;;;6.72;2.50;;;7.10;1.00;;;;;;7392506;19;20133;-73
2022/12/27 12:29:17;;;;;;;8.05;3.53;;;7.10;1.00;;;;;;7392110;19;20379;-73
2022/12/27 12:32:13;;;;;;;5.45;2.58;;;7.10;1.00;;;;;;7392377;19;20025;-74
2022/12/27 12:34:58;;;;;;;5.40;2.47;;;7.20;1.00;;;;;;7392458;19;20014;-72
2022/12/27 12:37:46;;;;;;;5.00;2.53;;;7.20;1.00;;;;;;7392194;19;20043;-72
2022/12/27 12:40:34;;;;;;;3.72;2.50;;;7.30;1.00;;;;;;7389402;19;20025;-73
2022/12/27 12:43:25;;;;;;;8.90;2.50;;;7.30;1.00;;;;;;7391777;19;20007;-72
2022/12/27 12:46:04;;;;;;;4.68;2.28;;;7.40;1.00;;;;;;7389624;19;20018;-73
2022/12/27 12:48:57;;;;;;;4.22;1.73;;;7.50;1.00;;;;;;7391247;19;20022;-71
2022/12/27 12:51:37;;;;;;;6.10;1.77;;;7.60;1.00;;;;;;7389917;19;20019;-73
2022/12/27 12:54:29;;;;;;;9.70;2.70;;;7.60;1.00;;;;;;7391404;19;20010;-73
2022/12/27 12:57:10;;;;;;;5.38;1.80;;;7.70;1.00;;;;;;7391264;19;20012;-72
2022/12/27 13:00:08;;;;;;;5.72;1.90;;;7.80;1.00;;;;;;7389084;19;20014;-72
2022/12/27 13:03:05;;;;;;;4.78;1.70;;;7.90;1.00;;;;;;7389460;19;20023;-73
2022/12/27 13:05:48;;;;;;;3.90;1.60;;;8.00;1.00;;;;;;7388869;19;20088;-73
2022/12/27 13:08:27;;;;;;;4.03;1.60;;;8.00;1.00;;;;;;7390249;19;20010;-73
2022/12/27 13:11:23;;;;;;;8.95;2.33;;;8.00;1.00;;;;;;7391197;19;20019;-72
2022/12/27 13:14:19;;;;;;;6.40;1.67;;;8.00;1.00;;;;;;7392456;19;20035;-72
2022/12/27 13:16:57;;;;;;;2.85;1.45;;;8.00;1.00;;;;;;7390913;19;20038;-72
2022/12/27 13:19:51;;;;;;;5.55;1.60;;;8.10;1.00;;;;;;7388903;19;20077;-72
2022/12/27 13:22:33;;;;;;;2.13;1.08;;;7.90;1.00;;;;;;7388129;19;20047;-72
2022/12/27 13:25:17;;;;;;;8.32;1.90;;;7.90;1.00;;;;;;7389621;19;20015;-72
2022/12/27 13:28:02;;;;;;;6.00;1.75;;;7.90;1.00;;;;;;7390167;19;20014;-72
2022/12/27 13:30:41;;;;;;;5.07;1.90;;;7.80;1.00;;;;;;7387630;19;20043;-73
2022/12/27 13:33:28;;;;;;;48.45;24.30;;;7.80;1.00;;;;;;7387431;19;20014;-72
2022/12/27 13:36:08;;;;;;;4.72;1.88;;;8.00;1.00;;;;;;7390228;19;20015;-73
2022/12/27 13:39:22;;;;;;;4.85;1.50;;;8.00;1.00;;;;;;7388839;19;20035;-72
2022/12/27 13:42:12;;;;;;;2.78;1.30;;;8.10;1.00;;;;;;7389629;19;20014;-73
2022/12/27 13:44:55;;;;;;;3.65;1.70;;;8.10;1.00;;;;;;7386865;19;20006;-74
2022/12/27 13:47:52;;;;;;;5.68;1.45;;;8.10;1.00;;;;;;7389400;19;20017;-71
2022/12/27 13:50:45;;;;;;;7.53;1.67;;;8.10;1.00;;;;;;7389072;19;20082;-72
2022/12/27 13:53:43;;;;;;;4.97;1.60;;;7.90;1.00;;;;;;7388753;19;20029;-73
2022/12/27 13:56:22;;;;;;;3.90;1.60;;;7.70;1.00;;;;;;7389505;19;20487;-72
2022/12/27 13:59:46;;;;;;;6.28;1.48;;;7.70;1.00;;;;;;7387697;19;20048;-73
2022/12/27 14:02:55;;;;;;;5.25;2.00;;;7.60;1.00;;;;;;7387413;19;20018;-73
2022/12/27 14:06:13;;;;;;;10.48;4.70;;;7.60;1.00;;;;;;7387484;19;20014;-72
2022/12/27 14:09:24;;;;;;;5.82;1.73;;;7.60;1.00;;;;;;7387317;19;20018;-72
2022/12/27 14:12:15;;;;;;;7.38;1.90;;;7.50;1.00;;;;;;7388554;19;20365;-73
2022/12/27 14:14:46;;;;;;;5.10;1.73;;;7.50;1.00;;;;;;7393273;19;20015;-74
2022/12/27 14:17:26;;;;;;;5.13;1.77;;;7.40;1.00;;;;;;7388904;19;20020;-71
2022/12/27 14:20:33;;;;;;;3.58;1.63;;;7.30;1.00;;;;;;7387363;19;20007;-72
2022/12/27 14:23:43;;;;;;;3.10;1.23;;;7.20;1.00;;;;;;7386090;19;20018;-74
2022/12/27 14:26:45;;;;;;;4.70;1.60;;;7.20;1.00;;;;;;7387887;19;20014;-71
2022/12/27 14:29:48;;;;;;;2.97;1.40;;;7.20;1.00;;;;;;7386806;19;20014;-73
2022/12/27 14:32:58;;;;;;;16.38;8.10;;;7.20;1.00;;;;;;7388177;19;20486;-72
2022/12/27 14:36:03;;;;;;;4.93;2.20;;;7.20;1.00;;;;;;7388202;19;20025;-72
2022/12/27 14:39:00;;;;;;;7.40;2.13;;;7.20;1.00;;;;;;7387565;19;20015;-73
2022/12/27 14:42:04;;;;;;;6.70;2.25;;;7.10;1.00;;;;;;7388305;19;20021;-73
2022/12/27 14:45:04;;;;;;;6.95;2.03;;;7.00;1.00;;;;;;7390929;19;20014;-73
2022/12/27 14:47:58;;;;;;;4.38;2.25;;;6.90;1.00;;;;;;7395263;19;20002;-73
2022/12/27 14:51:11;;;;;;;7.55;1.75;;;6.90;1.00;;;;;;7392325;19;20038;-73
2022/12/27 14:54:29;;;;;;;9.57;2.78;;;6.90;1.00;;;;;;7395045;19;20498;-74
2022/12/27 14:57:19;;;;;;;6.43;3.17;;;6.90;1.00;;;;;;7395799;19;20025;-72
2022/12/27 15:00:01;;;;;;;6.35;3.55;;;6.80;1.00;;;;;;7392224;19;20486;-73
2022/12/27 15:03:06;;;;;;;5.65;2.70;;;6.80;1.00;;;;;;7393699;19;20016;-73
2022/12/27 15:05:46;;;;;;;7.13;3.08;;;6.70;1.00;;;;;;7391844;19;20049;-71
2022/12/27 15:08:39;;;;;;;4.88;2.67;;;6.70;1.00;;;;;;7393891;19;20034;-72
2022/12/27 15:11:36;;;;;;;8.60;2.40;;;6.60;1.00;;;;;;7393955;19;20014;-72
2022/12/27 15:14:23;;;;;;;4.93;2.60;;;6.60;1.00;;;;;;7398012;19;20103;-71
2022/12/27 15:17:05;;;;;;;6.00;2.63;;;6.60;1.00;;;;;;7396544;19;20011;-72
2022/12/27 15:20:07;;;;;;;6.57;2.15;;;6.50;1.00;;;;;;7394569;19;20007;-72
2022/12/27 15:22:48;;;;;;;5.35;2.38;;;6.50;1.00;;;;;;7395042;19;20070;-73
2022/12/27 15:25:25;;;;;;;4.82;2.42;;;6.40;1.00;;;;;;7393925;19;20044;-73
2022/12/27 15:28:06;;;;;;;8.20;2.53;;;6.30;1.00;;;;;;7423423;19;20006;-72
2022/12/27 15:30:47;;;;;;;4.50;2.30;;;6.30;1.00;;;;;;7427665;19;20021;-73
2022/12/27 15:33:28;;;;;;;6.97;2.67;;;6.20;1.00;;;;;;7413275;19;20003;-72
2022/12/27 15:36:05;;;;;;;5.15;2.80;;;6.10;1.00;;;;;;7395880;19;20024;-72
2022/12/27 15:38:45;;;;;;;5.85;2.47;;;6.10;1.00;;;;;;7394600;19;20503;-72
2022/12/27 15:41:36;;;;;;;7.72;2.28;;;6.00;1.00;;;;;;7395060;19;20418;-72
2022/12/27 15:44:34;;;;;;;8.20;2.40;;;6.00;1.00;;;;;;7393753;19;20018;-74
2022/12/27 15:47:31;;;;;;;5.20;1.80;;;6.00;1.00;;;;;;7391376;19;20015;-72